Time;durP1;ratioP1;P1;durP2;ratioP2;P2;SDS_P1;SDS_P2;PMS_P1;PMS_P2;Temp;Humidity;BMP_temperature;BMP_pressure;BME280_temperature;BME280_humidity;BME280_pressure;Samples;Min_cycle;Max_cycle;Signal;HPM_P1;HPM_P2
2020/12/28 00:01:26;;;;;;;9.15;4.85;;;;;;;;;;4895583;29;20045;-70
2020/12/28 00:03:51;;;;;;;11.55;3.35;;;;;;;;;;4893904;29;20048;-70
2020/12/28 00:06:18;;;;;;;14.65;5.03;;;;;;;;;;4894840;29;20093;-70
2020/12/28 00:08:44;;;;;;;17.27;4.20;;;;;;;;;;4902373;29;20063;-70
2020/12/28 00:11:10;;;;;;;8.27;3.72;;;;;;;;;;4892042;29;20041;-70
2020/12/28 00:13:36;;;;;;;16.77;5.90;;;;;;;;;;4893364;29;20052;-70
2020/12/28 00:16:02;;;;;;;15.93;5.57;;;;;;;;;;4896825;29;20045;-70
2020/12/28 00:18:29;;;;;;;14.10;5.82;;;;;;;;;;4890683;29;20096;-70
2020/12/28 00:20:55;;;;;;;20.40;5.82;;;;;;;;;;4896991;29;20059;-70
2020/12/28 00:23:21;;;;;;;15.20;5.40;;;;;;;;;;4895710;29;20056;-70
2020/12/28 00:25:47;;;;;;;15.63;5.63;;;;;;;;;;4893209;29;20094;-70
2020/12/28 00:28:13;;;;;;;13.52;5.22;;;;;;;;;;4895805;29;20068;-71
2020/12/28 00:30:39;;;;;;;14.98;5.80;;;;;;;;;;4879616;29;20044;-70
2020/12/28 00:33:05;;;;;;;22.55;5.78;;;;;;;;;;4897011;29;20064;-70
2020/12/28 00:35:31;;;;;;;11.95;5.10;;;;;;;;;;4893047;29;20044;-70
2020/12/28 00:37:58;;;;;;;13.35;6.18;;;;;;;;;;4894544;29;20075;-70
2020/12/28 00:40:24;;;;;;;11.95;5.13;;;;;;;;;;4895261;29;20052;-70
2020/12/28 00:42:50;;;;;;;11.07;5.40;;;;;;;;;;4897585;29;20460;-70
2020/12/28 00:45:16;;;;;;;18.48;6.68;;;;;;;;;;4889354;29;20540;-70
2020/12/28 00:47:43;;;;;;;21.70;6.68;;;;;;;;;;4893285;29;20048;-70
2020/12/28 00:50:10;;;;;;;13.10;5.20;;;;;;;;;;4892778;29;20446;-70
2020/12/28 00:52:36;;;;;;;17.38;6.63;;;;;;;;;;4888618;29;20060;-70
2020/12/28 00:55:03;;;;;;;;;;;;;;;;;;4895853;29;20053;-70
2020/12/28 00:57:30;;;;;;;14.55;5.65;;;;;;;;;;4895995;29;20014;-70
2020/12/28 00:59:56;;;;;;;20.58;5.97;;;;;;;;;;4890673;29;20044;-70
2020/12/28 01:02:37;;;;;;;15.00;6.18;;;;;;;;;;4890806;29;20421;-70
2020/12/28 01:05:09;;;;;;;12.50;4.95;;;;;;;;;;4875306;29;20052;-70
2020/12/28 01:07:38;;;;;;;16.27;5.93;;;;;;;;;;4897126;29;20049;-70
2020/12/28 01:10:26;;;;;;;20.42;6.63;;;;;;;;;;4878649;29;20052;-70
2020/12/28 01:12:57;;;;;;;12.15;5.20;;;;;;;;;;4880559;29;20512;-70
2020/12/28 01:15:24;;;;;;;14.68;5.68;;;;;;;;;;4895533;29;20067;-70
2020/12/28 01:17:51;;;;;;;25.52;6.00;;;;;;;;;;4895566;29;20076;-70
2020/12/28 01:20:27;;;;;;;12.52;6.28;;;;;;;;;;4887604;29;20549;-70
2020/12/28 01:22:56;;;;;;;20.45;7.13;;;;;;;;;;4878918;29;20436;-70
2020/12/28 01:25:25;;;;;;;14.07;5.55;;;;;;;;;;4880019;29;20501;-70
2020/12/28 01:27:56;;;;;;;14.63;5.78;;;;;;;;;;4887975;29;20055;-70
2020/12/28 01:30:26;;;;;;;15.82;5.88;;;;;;;;;;4890849;29;20052;-70
2020/12/28 01:32:55;;;;;;;12.10;4.82;;;;;;;;;;4891351;29;20056;-70
2020/12/28 01:35:47;;;;;;;13.60;5.53;;;;;;;;;;4876412;29;20064;-70
2020/12/28 01:38:13;;;;;;;14.35;4.95;;;;;;;;;;4895282;29;20119;-70
2020/12/28 01:40:39;;;;;;;20.33;6.47;;;;;;;;;;4875420;29;20037;-70
2020/12/28 01:43:26;;;;;;;13.57;5.55;;;;;;;;;;4892450;29;20135;-70
2020/12/28 01:45:52;;;;;;;11.32;4.75;;;;;;;;;;4878602;29;20420;-70
2020/12/28 01:48:25;;;;;;;22.63;6.35;;;;;;;;;;4878397;29;20064;-70
2020/12/28 01:50:52;;;;;;;13.10;5.05;;;;;;;;;;4875537;29;20045;-70
2020/12/28 01:53:19;;;;;;;14.05;6.13;;;;;;;;;;4889086;29;20104;-70
2020/12/28 01:56:00;;;;;;;15.88;5.80;;;;;;;;;;4894767;29;20131;-70
2020/12/28 01:58:29;;;;;;;14.40;5.97;;;;;;;;;;4886135;29;20520;-70
2020/12/28 02:00:56;;;;;;;11.40;4.78;;;;;;;;;;4879615;29;20136;-70
2020/12/28 02:03:22;;;;;;;12.95;6.00;;;;;;;;;;4879032;29;20052;-70
2020/12/28 02:06:04;;;;;;;16.23;6.75;;;;;;;;;;4879382;29;20048;-70
2020/12/28 02:08:31;;;;;;;14.98;5.28;;;;;;;;;;4873924;29;20051;-70
2020/12/28 02:10:58;;;;;;;;;;;;;;;;;;4879865;29;20128;-70
2020/12/28 02:13:25;;;;;;;20.80;6.43;;;;;;;;;;4879341;29;19966;-70
2020/12/28 02:16:18;;;;;;;20.42;6.07;;;;;;;;;;4859741;29;20087;-70
2020/12/28 02:18:56;;;;;;;11.48;4.80;;;;;;;;;;4888601;29;20076;-70
2020/12/28 02:21:27;;;;;;;16.25;6.40;;;;;;;;;;4893162;29;20082;-70
2020/12/28 02:23:56;;;;;;;14.00;6.30;;;;;;;;;;4878348;29;20477;-70
2020/12/28 02:26:22;;;;;;;18.90;6.32;;;;;;;;;;4887052;29;20036;-70
2020/12/28 02:28:50;;;;;;;13.25;5.10;;;;;;;;;;4894133;29;20556;-70
2020/12/28 02:31:16;;;;;;;13.45;5.80;;;;;;;;;;4878780;29;20053;-70
2020/12/28 02:34:13;;;;;;;15.73;6.30;;;;;;;;;;4878400;29;20060;-70
2020/12/28 02:36:48;;;;;;;17.15;5.55;;;;;;;;;;4890154;29;20056;-70
2020/12/28 02:39:15;;;;;;;;;;;;;;;;;;4870473;29;20041;-70
2020/12/28 02:41:42;;;;;;;18.58;6.20;;;;;;;;;;4893110;29;19958;-70
2020/12/28 02:44:26;;;;;;;15.32;6.18;;;;;;;;;;4896058;29;20184;-70
2020/12/28 02:47:11;;;;;;;13.73;6.22;;;;;;;;;;4895451;29;20056;-70
2020/12/28 02:49:57;;;;;;;17.05;5.80;;;;;;;;;;4867751;29;20053;-70
2020/12/28 02:52:43;;;;;;;15.35;6.55;;;;;;;;;;4890840;29;20054;-70
2020/12/28 02:55:28;;;;;;;15.13;6.20;;;;;;;;;;4894811;29;20124;-70
2020/12/28 02:58:13;;;;;;;12.65;4.75;;;;;;;;;;4894641;29;20059;-70
2020/12/28 03:00:58;;;;;;;15.40;6.10;;;;;;;;;;4893418;29;20060;-70
2020/12/28 03:03:42;;;;;;;14.82;5.88;;;;;;;;;;4890729;29;20072;-70
2020/12/28 03:06:28;;;;;;;12.20;5.13;;;;;;;;;;4890600;29;20119;-70
2020/12/28 03:09:29;;;;;;;15.27;6.13;;;;;;;;;;4860377;29;20098;-70
2020/12/28 03:12:14;;;;;;;12.75;5.72;;;;;;;;;;4890161;29;20063;-70
2020/12/28 03:14:59;;;;;;;13.30;5.75;;;;;;;;;;4895384;29;20911;-70
2020/12/28 03:17:44;;;;;;;19.73;6.43;;;;;;;;;;4889761;29;20705;-70
2020/12/28 03:20:29;;;;;;;18.10;6.93;;;;;;;;;;4895226;29;20051;-70
2020/12/28 03:23:14;;;;;;;13.13;5.43;;;;;;;;;;4888727;29;20059;-70
2020/12/28 03:26:11;;;;;;;12.05;5.35;;;;;;;;;;4829501;29;20065;-70
2020/12/28 03:28:56;;;;;;;12.82;6.07;;;;;;;;;;4891822;29;20064;-70
2020/12/28 03:31:41;;;;;;;9.15;4.57;;;;;;;;;;4890822;29;20048;-70
2020/12/28 03:34:26;;;;;;;17.52;7.15;;;;;;;;;;4888213;29;20056;-70
2020/12/28 03:37:11;;;;;;;13.48;6.53;;;;;;;;;;4896754;29;20460;-70
2020/12/28 03:39:56;;;;;;;18.75;6.45;;;;;;;;;;4893531;29;20547;-70
2020/12/28 03:42:57;;;;;;;14.27;7.00;;;;;;;;;;4870382;29;20084;-70
2020/12/28 03:45:42;;;;;;;17.42;6.82;;;;;;;;;;4890013;29;20185;-70
2020/12/28 03:48:27;;;;;;;15.20;5.82;;;;;;;;;;4891630;29;20097;-70
2020/12/28 03:51:12;;;;;;;16.98;6.78;;;;;;;;;;4891379;29;20068;-70
2020/12/28 03:53:58;;;;;;;18.42;7.50;;;;;;;;;;4895394;29;20051;-70
2020/12/28 03:56:42;;;;;;;13.05;6.05;;;;;;;;;;4893366;29;20104;-70
2020/12/28 03:59:47;;;;;;;12.18;5.60;;;;;;;;;;4861181;29;20581;-70
2020/12/28 04:02:31;;;;;;;13.10;6.40;;;;;;;;;;4855681;29;20060;-70
2020/12/28 04:05:16;;;;;;;16.95;6.30;;;;;;;;;;4883518;29;20070;-70
2020/12/28 04:08:01;;;;;;;17.35;7.05;;;;;;;;;;4886706;29;20176;-70
2020/12/28 04:10:46;;;;;;;13.90;5.93;;;;;;;;;;4889070;29;20105;-70
2020/12/28 04:13:34;;;;;;;20.08;7.70;;;;;;;;;;4881682;29;20044;-70
2020/12/28 04:16:01;;;;;;;11.88;5.43;;;;;;;;;;4894470;29;20079;-70
2020/12/28 04:18:27;;;;;;;16.23;6.63;;;;;;;;;;4885271;29;20561;-70
2020/12/28 04:20:53;;;;;;;10.38;5.50;;;;;;;;;;4892457;29;20045;-70
2020/12/28 04:23:19;;;;;;;14.85;6.93;;;;;;;;;;4887711;29;20116;-70
2020/12/28 04:25:45;;;;;;;17.67;7.68;;;;;;;;;;4887001;29;20045;-70
2020/12/28 04:28:11;;;;;;;10.02;4.90;;;;;;;;;;4894217;29;20514;-70
2020/12/28 04:30:38;;;;;;;16.70;7.28;;;;;;;;;;4894847;29;20064;-70
2020/12/28 04:33:04;;;;;;;15.73;7.80;;;;;;;;;;4892943;29;20060;-70
2020/12/28 04:35:30;;;;;;;14.45;6.15;;;;;;;;;;4893042;29;20044;-70
2020/12/28 04:37:59;;;;;;;18.58;8.20;;;;;;;;;;4895592;29;20131;-70
2020/12/28 04:40:26;;;;;;;14.90;6.97;;;;;;;;;;4887848;29;20519;-70
2020/12/28 04:42:53;;;;;;;12.70;5.80;;;;;;;;;;4899222;29;20053;-70
2020/12/28 04:45:21;;;;;;;10.85;5.88;;;;;;;;;;4897613;29;20147;-70
2020/12/28 04:47:48;;;;;;;17.15;7.50;;;;;;;;;;4896513;29;20079;-70
2020/12/28 04:50:14;;;;;;;19.73;8.13;;;;;;;;;;4887740;29;20043;-70
2020/12/28 04:52:40;;;;;;;12.63;6.27;;;;;;;;;;4892433;29;20116;-70
2020/12/28 04:55:06;;;;;;;18.08;6.47;;;;;;;;;;4892350;29;20064;-70
2020/12/28 04:57:33;;;;;;;18.20;7.68;;;;;;;;;;4896049;29;20041;-70
2020/12/28 04:59:59;;;;;;;12.85;7.70;;;;;;;;;;4890982;29;20041;-70
2020/12/28 05:02:25;;;;;;;14.55;7.43;;;;;;;;;;4896453;29;20055;-70
2020/12/28 05:04:52;;;;;;;18.08;8.57;;;;;;;;;;4890616;29;20037;-70
2020/12/28 05:07:18;;;;;;;12.75;6.47;;;;;;;;;;4897335;29;20051;-70
2020/12/28 05:09:44;;;;;;;19.88;7.72;;;;;;;;;;4901352;29;20040;-70
2020/12/28 05:12:11;;;;;;;18.83;5.97;;;;;;;;;;4892339;29;20044;-70
2020/12/28 05:14:37;;;;;;;16.60;7.50;;;;;;;;;;4896474;29;20051;-70
2020/12/28 05:17:07;;;;;;;15.30;7.22;;;;;;;;;;4902228;29;20044;-70
2020/12/28 05:19:36;;;;;;;18.60;8.10;;;;;;;;;;4892526;29;20069;-70
2020/12/28 05:22:03;;;;;;;15.48;7.25;;;;;;;;;;4895347;29;20049;-70
2020/12/28 05:24:29;;;;;;;15.68;6.53;;;;;;;;;;4895045;29;20052;-70
2020/12/28 05:26:57;;;;;;;13.70;6.53;;;;;;;;;;4880247;29;20408;-70
2020/12/28 05:29:24;;;;;;;19.38;7.78;;;;;;;;;;4887717;29;20501;-70
2020/12/28 05:31:51;;;;;;;16.02;7.72;;;;;;;;;;4894381;29;20130;-70
2020/12/28 05:34:19;;;;;;;19.50;8.10;;;;;;;;;;4896563;29;20504;-70
2020/12/28 05:36:45;;;;;;;;;;;;;;;;;;4891520;29;20046;-70
2020/12/28 05:39:14;;;;;;;14.73;5.72;;;;;;;;;;4895234;29;19931;-70
2020/12/28 05:41:40;;;;;;;15.40;7.50;;;;;;;;;;4890392;29;20512;-70
2020/12/28 05:44:09;;;;;;;12.68;7.15;;;;;;;;;;4890742;29;20064;-70
2020/12/28 05:46:36;;;;;;;12.77;6.40;;;;;;;;;;4894731;29;20048;-69
2020/12/28 05:49:04;;;;;;;17.75;8.73;;;;;;;;;;4893338;29;20475;-70
2020/12/28 05:51:33;;;;;;;15.43;7.35;;;;;;;;;;4892391;29;20654;-70
2020/12/28 05:54:02;;;;;;;17.50;7.85;;;;;;;;;;4895439;29;20449;-70
2020/12/28 05:56:28;;;;;;;13.63;7.57;;;;;;;;;;4887743;29;20044;-70
2020/12/28 05:58:55;;;;;;;14.10;7.55;;;;;;;;;;4896149;29;20051;-70
2020/12/28 06:01:21;;;;;;;17.40;7.22;;;;;;;;;;4891997;29;20040;-70
2020/12/28 06:03:47;;;;;;;21.20;7.97;;;;;;;;;;4893227;29;20496;-70
2020/12/28 06:06:15;;;;;;;20.95;8.85;;;;;;;;;;4898287;29;20036;-70
2020/12/28 06:08:42;;;;;;;18.25;8.57;;;;;;;;;;4892646;29;20044;-70
2020/12/28 06:11:08;;;;;;;14.48;8.18;;;;;;;;;;4896980;29;20041;-70
2020/12/28 06:13:34;;;;;;;12.95;7.63;;;;;;;;;;4891660;29;20060;-70
2020/12/28 06:16:02;;;;;;;16.33;7.00;;;;;;;;;;4894315;29;20147;-70
2020/12/28 06:18:28;;;;;;;16.33;7.95;;;;;;;;;;4887760;29;20048;-70
2020/12/28 06:20:55;;;;;;;13.17;5.37;;;;;;;;;;4894324;29;20438;-70
2020/12/28 06:23:37;;;;;;;16.20;7.53;;;;;;;;;;4895535;29;20139;-70
2020/12/28 06:26:03;;;;;;;;;;;;;;;;;;4892647;29;20053;-70
2020/12/28 06:28:29;;;;;;;16.08;6.97;;;;;;;;;;4893990;29;19931;-70
2020/12/28 06:31:05;;;;;;;12.52;6.35;;;;;;;;;;4895522;29;20052;-70
2020/12/28 06:33:35;;;;;;;13.18;7.75;;;;;;;;;;4894203;29;20069;-70
2020/12/28 06:36:14;;;;;;;14.70;6.78;;;;;;;;;;4890660;29;20044;-70
2020/12/28 06:38:41;;;;;;;13.35;6.43;;;;;;;;;;4896877;29;20044;-70
2020/12/28 06:41:08;;;;;;;12.55;5.78;;;;;;;;;;4887583;29;20052;-70
2020/12/28 06:43:38;;;;;;;12.07;6.95;;;;;;;;;;4886137;29;20445;-70
2020/12/28 06:46:04;;;;;;;16.60;6.82;;;;;;;;;;4887793;29;20529;-70
2020/12/28 06:48:30;;;;;;;16.73;7.90;;;;;;;;;;4894318;29;20045;-70
2020/12/28 06:51:05;;;;;;;16.50;8.07;;;;;;;;;;4895446;29;20127;-70
2020/12/28 06:53:32;;;;;;;12.85;5.78;;;;;;;;;;4889241;29;20128;-70
2020/12/28 06:56:05;;;;;;;15.32;7.25;;;;;;;;;;4890864;29;20037;-70
2020/12/28 06:58:31;;;;;;;15.27;6.80;;;;;;;;;;4889637;29;20044;-70
2020/12/28 07:00:57;;;;;;;13.50;6.55;;;;;;;;;;4888424;29;20101;-70
2020/12/28 07:03:23;;;;;;;11.40;6.93;;;;;;;;;;4883088;29;22209;-70
2020/12/28 07:05:57;;;;;;;15.45;7.90;;;;;;;;;;4893487;29;20067;-69
2020/12/28 07:08:26;;;;;;;13.77;7.10;;;;;;;;;;4893391;29;20049;-69
2020/12/28 07:11:00;;;;;;;13.07;7.70;;;;;;;;;;4894961;29;20127;-70
2020/12/28 07:13:27;;;;;;;14.80;7.93;;;;;;;;;;4887746;29;20048;-70
2020/12/28 07:16:00;;;;;;;15.98;7.45;;;;;;;;;;4894687;29;20492;-70
2020/12/28 07:18:26;;;;;;;13.23;7.25;;;;;;;;;;4890548;29;20040;-69
2020/12/28 07:20:58;;;;;;;12.25;7.05;;;;;;;;;;4891873;29;20051;-70
2020/12/28 07:23:27;;;;;;;19.30;7.10;;;;;;;;;;4895746;29;20108;-70
2020/12/28 07:26:07;;;;;;;17.00;7.30;;;;;;;;;;4888358;29;20497;-69
2020/12/28 07:28:34;;;;;;;17.70;6.97;;;;;;;;;;4888588;29;20049;-70
2020/12/28 07:31:02;;;;;;;14.95;7.30;;;;;;;;;;4894385;29;20068;-69
2020/12/28 07:33:28;;;;;;;13.18;7.20;;;;;;;;;;4894200;29;20067;-70
2020/12/28 07:36:08;;;;;;;17.38;8.27;;;;;;;;;;4886812;29;20036;-70
2020/12/28 07:38:35;;;;;;;14.95;7.70;;;;;;;;;;4890369;29;20135;-70
2020/12/28 07:41:04;;;;;;;13.10;6.35;;;;;;;;;;4891975;29;20214;-69
2020/12/28 07:43:30;;;;;;;17.10;7.43;;;;;;;;;;4894260;29;20442;-70
2020/12/28 07:46:16;;;;;;;13.55;7.15;;;;;;;;;;4895086;29;20052;-70
2020/12/28 07:48:43;;;;;;;15.02;7.93;;;;;;;;;;4896432;29;20048;-69
2020/12/28 07:51:11;;;;;;;12.55;7.38;;;;;;;;;;4885176;29;20131;-69
2020/12/28 07:53:41;;;;;;;14.93;7.43;;;;;;;;;;4886285;29;20497;-70
2020/12/28 07:56:11;;;;;;;16.63;7.28;;;;;;;;;;4892758;29;20040;-69
2020/12/28 07:58:53;;;;;;;16.08;7.30;;;;;;;;;;4890027;29;20505;-70
2020/12/28 08:01:31;;;;;;;12.27;6.78;;;;;;;;;;4890906;29;20048;-69
2020/12/28 08:04:01;;;;;;;19.67;8.77;;;;;;;;;;4889890;29;20068;-70
2020/12/28 08:06:28;;;;;;;20.98;7.85;;;;;;;;;;4891518;29;20047;-69
2020/12/28 08:09:04;;;;;;;14.73;6.43;;;;;;;;;;4892017;29;20036;-70
2020/12/28 08:11:31;;;;;;;16.73;7.90;;;;;;;;;;4893553;29;20045;-69
2020/12/28 08:13:58;;;;;;;18.60;8.37;;;;;;;;;;4895674;29;20648;-69
2020/12/28 08:16:26;;;;;;;16.35;7.97;;;;;;;;;;4898372;29;20056;-70
2020/12/28 08:18:57;;;;;;;15.95;7.43;;;;;;;;;;4897228;29;20084;-70
2020/12/28 08:21:23;;;;;;;14.13;7.38;;;;;;;;;;4897541;29;20064;-69
2020/12/28 08:23:54;;;;;;;15.65;7.53;;;;;;;;;;4895335;29;20112;-70
2020/12/28 08:26:21;;;;;;;17.77;8.02;;;;;;;;;;4891773;29;20045;-69
2020/12/28 08:28:49;;;;;;;19.67;9.10;;;;;;;;;;4897115;29;20079;-69
2020/12/28 08:31:16;;;;;;;17.25;7.80;;;;;;;;;;4897242;29;20040;-70
2020/12/28 08:33:42;;;;;;;19.27;8.68;;;;;;;;;;4893936;29;20041;-70
2020/12/28 08:36:08;;;;;;;20.50;9.52;;;;;;;;;;4897117;29;20100;-69
2020/12/28 08:38:35;;;;;;;19.23;9.68;;;;;;;;;;4895921;29;20112;-69
2020/12/28 08:41:01;;;;;;;22.63;9.70;;;;;;;;;;4894959;29;20116;-70
2020/12/28 08:43:27;;;;;;;25.42;9.65;;;;;;;;;;4893865;29;20069;-70
2020/12/28 08:46:03;;;;;;;17.88;8.82;;;;;;;;;;4897623;29;20040;-69
2020/12/28 08:48:29;;;;;;;17.25;9.75;;;;;;;;;;4897048;29;20040;-69
2020/12/28 08:50:55;;;;;;;14.15;7.35;;;;;;;;;;4894139;29;20085;-69
2020/12/28 08:53:22;;;;;;;18.92;8.18;;;;;;;;;;4890571;29;20055;-70
2020/12/28 08:55:58;;;;;;;14.43;5.97;;;;;;;;;;4891206;29;20144;-69
2020/12/28 08:58:27;;;;;;;20.50;9.35;;;;;;;;;;4891413;29;20095;-70
2020/12/28 09:00:54;;;;;;;17.77;8.83;;;;;;;;;;4899295;29;20047;-70
2020/12/28 09:03:20;;;;;;;20.08;9.45;;;;;;;;;;4895505;29;20068;-70
2020/12/28 09:05:46;;;;;;;16.67;6.28;;;;;;;;;;4899640;29;20076;-70
2020/12/28 09:08:12;;;;;;;24.17;10.73;;;;;;;;;;4895020;29;20048;-69
2020/12/28 09:10:39;;;;;;;18.55;9.38;;;;;;;;;;4893418;29;20127;-69
2020/12/28 09:13:05;;;;;;;20.20;9.10;;;;;;;;;;4893159;29;20041;-69
2020/12/28 09:15:31;;;;;;;18.65;7.60;;;;;;;;;;4895182;29;20052;-69
2020/12/28 09:17:57;;;;;;;21.35;10.10;;;;;;;;;;4893150;29;20119;-69
2020/12/28 09:20:23;;;;;;;27.45;10.73;;;;;;;;;;4892539;29;20125;-70
2020/12/28 09:22:49;;;;;;;22.13;10.30;;;;;;;;;;4893260;29;20553;-70
2020/12/28 09:25:15;;;;;;;16.40;8.90;;;;;;;;;;4886182;29;20052;-69
2020/12/28 09:27:41;;;;;;;21.80;9.48;;;;;;;;;;4888747;29;20045;-69
2020/12/28 09:30:07;;;;;;;20.85;8.45;;;;;;;;;;4891165;29;20093;-69
2020/12/28 09:32:37;;;;;;;22.08;10.48;;;;;;;;;;4892759;29;20059;-69
2020/12/28 09:35:03;;;;;;;20.50;8.30;;;;;;;;;;4890568;29;20120;-69
2020/12/28 09:37:29;;;;;;;22.30;9.23;;;;;;;;;;4894884;29;20396;-69
2020/12/28 09:39:55;;;;;;;23.75;11.05;;;;;;;;;;4893191;29;20548;-69
2020/12/28 09:42:21;;;;;;;26.73;11.05;;;;;;;;;;4896328;29;20068;-69
2020/12/28 09:44:48;;;;;;;19.02;9.55;;;;;;;;;;4880053;29;20421;-69
2020/12/28 09:47:14;;;;;;;21.88;10.65;;;;;;;;;;4895205;29;20057;-70
2020/12/28 09:49:40;;;;;;;21.52;8.60;;;;;;;;;;4896071;29;20055;-69
2020/12/28 09:52:07;;;;;;;24.00;12.00;;;;;;;;;;4893406;29;20068;-69
2020/12/28 09:54:34;;;;;;;22.52;11.02;;;;;;;;;;4880087;29;20067;-69
2020/12/28 09:57:05;;;;;;;20.30;8.07;;;;;;;;;;4898817;29;20037;-69
2020/12/28 09:59:32;;;;;;;26.75;11.63;;;;;;;;;;4886516;29;20060;-69
2020/12/28 10:01:58;;;;;;;22.73;10.55;;;;;;;;;;4893936;29;20037;-69
2020/12/28 10:04:24;;;;;;;27.63;11.75;;;;;;;;;;4891066;29;20476;-69
2020/12/28 10:06:50;;;;;;;26.08;11.88;;;;;;;;;;4896802;29;20045;-69
2020/12/28 10:09:16;;;;;;;29.08;12.48;;;;;;;;;;4896941;29;20052;-69
2020/12/28 10:11:42;;;;;;;27.13;11.38;;;;;;;;;;4889072;29;20036;-70
2020/12/28 10:14:08;;;;;;;25.63;10.38;;;;;;;;;;4891886;29;20635;-69
2020/12/28 10:16:34;;;;;;;17.70;8.30;;;;;;;;;;4890449;29;20079;-69
2020/12/28 10:19:00;;;;;;;20.15;10.48;;;;;;;;;;4891545;29;20163;-69
2020/12/28 10:21:27;;;;;;;22.67;10.65;;;;;;;;;;4893130;29;20061;-69
2020/12/28 10:23:54;;;;;;;22.10;9.52;;;;;;;;;;4891048;29;20509;-69
2020/12/28 10:26:22;;;;;;;21.90;11.32;;;;;;;;;;4892028;29;20044;-69
2020/12/28 10:28:49;;;;;;;23.40;12.30;;;;;;;;;;4892060;29;20043;-70
2020/12/28 10:31:15;;;;;;;23.63;11.38;;;;;;;;;;4894073;29;20036;-69
2020/12/28 10:33:49;;;;;;;24.08;11.20;;;;;;;;;;4891229;29;20044;-69
2020/12/28 10:36:17;;;;;;;22.38;11.32;;;;;;;;;;4893652;29;20104;-69
2020/12/28 10:38:47;;;;;;;26.08;12.35;;;;;;;;;;4895636;29;20056;-69
2020/12/28 10:41:14;;;;;;;26.88;12.57;;;;;;;;;;4892389;29;20386;-69
2020/12/28 10:43:40;;;;;;;22.58;11.07;;;;;;;;;;4893914;29;20048;-70
2020/12/28 10:46:08;;;;;;;23.23;11.25;;;;;;;;;;4889948;29;20037;-70
2020/12/28 10:48:34;;;;;;;20.65;8.85;;;;;;;;;;4891946;29;20100;-69
2020/12/28 10:51:00;;;;;;;22.65;10.65;;;;;;;;;;4895322;29;20045;-69
2020/12/28 10:53:27;;;;;;;25.58;11.95;;;;;;;;;;4893408;29;20513;-69
2020/12/28 10:55:53;;;;;;;23.92;12.13;;;;;;;;;;4895680;29;20109;-69
2020/12/28 10:58:19;;;;;;;23.88;11.00;;;;;;;;;;4894213;29;20049;-69
2020/12/28 11:00:49;;;;;;;31.77;13.88;;;;;;;;;;4890153;29;20059;-69
2020/12/28 11:03:15;;;;;;;27.83;12.55;;;;;;;;;;4891978;29;20045;-69
2020/12/28 11:05:42;;;;;;;28.00;14.02;;;;;;;;;;4890281;29;20115;-69
2020/12/28 11:08:08;;;;;;;21.45;10.20;;;;;;;;;;4890577;29;20131;-69
2020/12/28 11:10:34;;;;;;;27.63;12.07;;;;;;;;;;4892309;29;20036;-69
2020/12/28 11:13:01;;;;;;;26.95;13.82;;;;;;;;;;4892765;29;20044;-69
2020/12/28 11:15:27;;;;;;;23.13;11.70;;;;;;;;;;4888955;29;20708;-69
2020/12/28 11:17:54;;;;;;;19.75;10.27;;;;;;;;;;4895198;29;20328;-69
2020/12/28 11:20:20;;;;;;;29.95;13.63;;;;;;;;;;4894905;29;20097;-69
2020/12/28 11:22:48;;;;;;;24.17;11.65;;;;;;;;;;4892796;29;20056;-69
2020/12/28 11:25:16;;;;;;;29.23;12.98;;;;;;;;;;4894651;29;20048;-69
2020/12/28 11:27:43;;;;;;;21.60;10.43;;;;;;;;;;4889630;29;20053;-69
2020/12/28 11:30:09;;;;;;;30.17;13.27;;;;;;;;;;4890731;29;20100;-69
2020/12/28 11:32:36;;;;;;;28.48;12.85;;;;;;;;;;4893164;29;20056;-69
2020/12/28 11:35:03;;;;;;;28.15;13.95;;;;;;;;;;4895784;29;20053;-69
2020/12/28 11:37:29;;;;;;;25.98;12.32;;;;;;;;;;4890008;29;20099;-69
2020/12/28 11:39:56;;;;;;;28.17;13.35;;;;;;;;;;4892770;29;20396;-69
2020/12/28 11:42:22;;;;;;;24.63;12.15;;;;;;;;;;4892681;29;20080;-69
2020/12/28 11:44:48;;;;;;;26.98;13.55;;;;;;;;;;4894381;29;20453;-69
2020/12/28 11:47:14;;;;;;;29.63;10.45;;;;;;;;;;4895060;29;20055;-69
2020/12/28 11:49:40;;;;;;;36.65;14.07;;;;;;;;;;4897287;29;20052;-69
2020/12/28 11:52:06;;;;;;;27.73;13.80;;;;;;;;;;4892578;29;20055;-69
2020/12/28 11:54:32;;;;;;;28.17;14.82;;;;;;;;;;4898024;29;20076;-69
2020/12/28 11:56:58;;;;;;;26.73;13.52;;;;;;;;;;4896813;29;20041;-69
2020/12/28 11:59:25;;;;;;;26.33;12.82;;;;;;;;;;4898870;29;20040;-69
2020/12/28 12:01:51;;;;;;;24.60;12.90;;;;;;;;;;4897635;29;20113;-69
2020/12/28 12:04:17;;;;;;;26.83;12.52;;;;;;;;;;4875938;29;20053;-69
2020/12/28 12:06:44;;;;;;;26.88;14.38;;;;;;;;;;4895762;29;20068;-69
2020/12/28 12:11:37;;;;;;;30.10;15.38;;;;;;;;;;4893688;29;20071;-69
2020/12/28 12:14:03;;;;;;;31.42;14.40;;;;;;;;;;4899157;29;20530;-69
2020/12/28 12:16:29;;;;;;;28.25;12.80;;;;;;;;;;4898732;29;20405;-69
2020/12/28 12:18:55;;;;;;;25.02;11.40;;;;;;;;;;4890682;29;20076;-69
2020/12/28 12:21:22;;;;;;;29.50;13.88;;;;;;;;;;4887964;29;20056;-69
2020/12/28 12:23:48;;;;;;;27.45;13.95;;;;;;;;;;4895085;29;20104;-69
2020/12/28 12:26:19;;;;;;;26.10;10.10;;;;;;;;;;4896079;29;20048;-69
2020/12/28 12:28:45;;;;;;;26.55;12.48;;;;;;;;;;4897818;29;20068;-69
2020/12/28 12:31:15;;;;;;;23.98;13.48;;;;;;;;;;4892785;29;20788;-69
2020/12/28 12:33:42;;;;;;;24.05;11.25;;;;;;;;;;4895034;29;20047;-69
2020/12/28 12:36:09;;;;;;;26.45;12.65;;;;;;;;;;4893759;29;20041;-69
2020/12/28 12:38:35;;;;;;;24.85;11.40;;;;;;;;;;4897004;29;20052;-68
2020/12/28 12:41:01;;;;;;;20.95;11.02;;;;;;;;;;4897236;29;20036;-68
2020/12/28 12:43:27;;;;;;;19.77;10.52;;;;;;;;;;4896226;29;20047;-68
2020/12/28 12:45:54;;;;;;;21.00;10.98;;;;;;;;;;4894048;29;20067;-68
2020/12/28 12:48:20;;;;;;;24.30;10.93;;;;;;;;;;4885192;29;20094;-68
2020/12/28 12:50:47;;;;;;;25.95;13.18;;;;;;;;;;4892443;29;20044;-68
2020/12/28 12:53:13;;;;;;;24.30;12.20;;;;;;;;;;4886307;29;20049;-68
2020/12/28 12:55:41;;;;;;;20.50;11.23;;;;;;;;;;4890296;29;20140;-68
2020/12/28 12:58:08;;;;;;;20.80;9.95;;;;;;;;;;4890181;29;20076;-68
2020/12/28 13:00:34;;;;;;;23.23;10.77;;;;;;;;;;4893772;29;20041;-68
2020/12/28 13:03:00;;;;;;;22.65;12.35;;;;;;;;;;4875761;29;20050;-68
2020/12/28 13:05:26;;;;;;;20.58;10.73;;;;;;;;;;4878897;29;20045;-69
2020/12/28 13:07:54;;;;;;;20.92;12.18;;;;;;;;;;4894687;29;20509;-68
2020/12/28 13:10:24;;;;;;;25.77;12.93;;;;;;;;;;4896995;29;20505;-68
2020/12/28 13:12:50;;;;;;;20.67;10.20;;;;;;;;;;4895879;29;20493;-68
2020/12/28 13:15:16;;;;;;;23.55;12.70;;;;;;;;;;4889664;29;20731;-68
2020/12/28 13:17:42;;;;;;;36.67;16.27;;;;;;;;;;4896778;29;20044;-68
2020/12/28 13:20:08;;;;;;;26.30;12.85;;;;;;;;;;4893266;29;20047;-68
2020/12/28 13:22:35;;;;;;;22.00;11.45;;;;;;;;;;4894178;29;20623;-68
2020/12/28 13:25:01;;;;;;;17.65;9.48;;;;;;;;;;4891014;29;20489;-68
2020/12/28 13:27:27;;;;;;;17.92;9.80;;;;;;;;;;4892583;29;20052;-68
2020/12/28 13:29:54;;;;;;;;;;;;;;;;;;4892790;29;20040;-69
2020/12/28 13:32:21;;;;;;;17.95;9.85;;;;;;;;;;4893664;29;19927;-69
2020/12/28 13:34:48;;;;;;;15.43;7.97;;;;;;;;;;4893552;29;20049;-69
2020/12/28 13:37:15;;;;;;;18.38;10.30;;;;;;;;;;4890895;29;20044;-69
2020/12/28 13:39:42;;;;;;;18.58;9.13;;;;;;;;;;4895406;29;20081;-68
2020/12/28 13:42:08;;;;;;;16.52;8.93;;;;;;;;;;4890995;29;20412;-69
2020/12/28 13:44:35;;;;;;;21.05;10.40;;;;;;;;;;4893740;29;20041;-68
2020/12/28 13:47:01;;;;;;;19.17;8.30;;;;;;;;;;4880017;29;20040;-69
2020/12/28 13:49:27;;;;;;;19.55;10.00;;;;;;;;;;4893586;29;20096;-69
2020/12/28 13:51:56;;;;;;;14.90;7.32;;;;;;;;;;4892059;29;20096;-68
2020/12/28 13:54:22;;;;;;;17.92;7.90;;;;;;;;;;4897025;29;20617;-69
2020/12/28 13:56:56;;;;;;;19.48;10.15;;;;;;;;;;4892891;29;20144;-69
2020/12/28 13:59:22;;;;;;;17.83;10.63;;;;;;;;;;4892410;29;20106;-69
2020/12/28 14:01:55;;;;;;;17.13;9.63;;;;;;;;;;4895296;29;20048;-69
2020/12/28 14:04:21;;;;;;;16.77;8.87;;;;;;;;;;4892412;29;20045;-69
2020/12/28 14:06:48;;;;;;;20.02;10.45;;;;;;;;;;4894524;29;20104;-69
2020/12/28 14:09:14;;;;;;;18.63;9.93;;;;;;;;;;4894464;29;20128;-69
2020/12/28 14:11:41;;;;;;;;;;;;;;;;;;4889986;29;20527;-68
2020/12/28 14:14:08;;;;;;;16.33;7.95;;;;;;;;;;4892701;29;19928;-68
2020/12/28 14:16:34;;;;;;;21.58;9.88;;;;;;;;;;4890597;29;20045;-68
2020/12/28 14:19:01;;;;;;;19.83;10.60;;;;;;;;;;4895716;29;20037;-68
2020/12/28 14:21:28;;;;;;;19.40;10.10;;;;;;;;;;4893424;29;20052;-68
2020/12/28 14:23:54;;;;;;;20.60;9.73;;;;;;;;;;4885486;29;20079;-68
2020/12/28 14:26:20;;;;;;;19.92;10.00;;;;;;;;;;4895437;29;20048;-69
2020/12/28 14:28:47;;;;;;;20.33;9.63;;;;;;;;;;4893411;29;20513;-69
2020/12/28 14:31:14;;;;;;;19.55;10.63;;;;;;;;;;4893316;29;20060;-69
2020/12/28 14:33:41;;;;;;;19.95;11.30;;;;;;;;;;4885782;29;20049;-69
2020/12/28 14:36:08;;;;;;;20.60;11.65;;;;;;;;;;4884420;29;20085;-68
2020/12/28 14:38:34;;;;;;;12.60;6.90;;;;;;;;;;4881433;29;20384;-68
2020/12/28 14:41:03;;;;;;;20.90;12.43;;;;;;;;;;4887212;29;20043;-69
2020/12/28 14:43:29;;;;;;;16.15;7.75;;;;;;;;;;4884070;29;20450;-69
2020/12/28 14:45:55;;;;;;;13.68;6.88;;;;;;;;;;4890751;29;20053;-69